createdAt,value
2018-12-02T00:00:50.382Z,21.50
2018-12-02T00:01:50.367Z,21.20
2018-12-02T00:02:50.361Z,21.70
2018-12-02T00:03:50.352Z,23.00
2018-12-02T00:04:50.334Z,23.90
2018-12-02T00:05:50.319Z,20.70
2018-12-02T00:06:50.318Z,22.80
2018-12-02T00:07:50.298Z,22.80
2018-12-02T00:08:50.298Z,28.00
2018-12-02T00:09:50.277Z,25.00
2018-12-02T00:10:50.263Z,25.90
2018-12-02T00:11:50.252Z,23.20
2018-12-02T00:12:50.240Z,22.80
2018-12-02T00:13:50.248Z,23.50
2018-12-02T00:14:50.219Z,22.80
2018-12-02T00:15:50.207Z,22.00
2018-12-02T00:16:50.196Z,22.30
2018-12-02T00:17:50.192Z,21.70
2018-12-02T00:18:50.185Z,24.30
2018-12-02T00:19:50.177Z,20.40
2018-12-02T00:20:50.153Z,21.10
2018-12-02T00:21:50.159Z,25.20
2018-12-02T00:22:50.638Z,23.10
2018-12-02T00:23:50.139Z,23.40
2018-12-02T00:24:50.109Z,21.60
2018-12-02T00:25:50.109Z,26.00
2018-12-02T00:26:50.091Z,22.40
2018-12-02T00:27:50.077Z,23.20
2018-12-02T00:28:50.076Z,22.10
2018-12-02T00:29:50.055Z,27.30
2018-12-02T00:30:50.046Z,20.40
2018-12-02T00:31:50.033Z,24.60
2018-12-02T00:32:50.041Z,23.10
2018-12-02T00:33:50.048Z,22.10
2018-12-02T00:34:50.009Z,23.90
2018-12-02T00:35:49.984Z,22.50
2018-12-02T00:36:49.971Z,24.00
2018-12-02T00:37:49.958Z,22.10
2018-12-02T00:38:49.947Z,23.40
2018-12-02T00:39:49.948Z,21.70
2018-12-02T00:40:49.930Z,25.30
2018-12-02T00:41:49.914Z,21.00
2018-12-02T00:42:49.909Z,20.80
2018-12-02T00:43:49.895Z,24.60
2018-12-02T00:44:49.910Z,20.20
2018-12-02T00:45:49.873Z,22.30
2018-12-02T00:46:49.862Z,22.80
2018-12-02T00:47:49.873Z,23.10
2018-12-02T00:48:49.834Z,23.50
2018-12-02T00:49:49.829Z,21.70
2018-12-02T00:50:49.831Z,20.40
2018-12-02T00:51:49.804Z,22.10
2018-12-02T00:52:49.793Z,21.70
2018-12-02T00:53:49.778Z,24.30
2018-12-02T00:54:49.766Z,23.00
2018-12-02T00:55:49.770Z,22.30
2018-12-02T00:56:49.745Z,24.00
2018-12-02T00:57:49.735Z,21.20
2018-12-02T00:58:49.722Z,23.00
2018-12-02T00:59:49.712Z,22.50
2018-12-02T01:00:49.723Z,21.40
2018-12-02T01:01:49.689Z,22.20
2018-12-02T01:02:49.687Z,24.70
2018-12-02T01:03:49.668Z,23.80
2018-12-02T01:04:49.658Z,20.70
2018-12-02T01:05:49.656Z,21.10
2018-12-02T01:06:53.595Z,21.00
2018-12-02T01:07:49.621Z,21.00
2018-12-02T01:08:49.613Z,22.20
2018-12-02T01:09:49.603Z,22.90
2018-12-02T01:10:49.601Z,21.40
2018-12-02T01:11:49.576Z,21.60
2018-12-02T01:12:49.565Z,25.40
2018-12-02T01:13:49.559Z,19.30
2018-12-02T01:14:49.544Z,19.50
2018-12-02T01:15:49.546Z,23.00
2018-12-02T01:16:49.524Z,23.10
2018-12-02T01:17:49.523Z,19.40
2018-12-02T01:18:49.498Z,25.20
2018-12-02T01:19:49.485Z,22.70
2018-12-02T01:20:49.487Z,18.30
2018-12-02T01:21:49.462Z,23.10
2018-12-02T01:22:49.490Z,21.50
2018-12-02T01:23:49.441Z,23.20
2018-12-02T01:24:49.431Z,21.60
2018-12-02T01:25:49.448Z,23.40
2018-12-02T01:26:49.471Z,21.10
2018-12-02T01:27:49.405Z,19.80
2018-12-02T01:28:49.420Z,20.70
2018-12-02T01:29:49.377Z,20.20
2018-12-02T01:30:49.385Z,20.60
2018-12-02T01:31:49.354Z,21.00
2018-12-02T01:32:49.372Z,18.90
2018-12-02T01:33:49.338Z,22.70
2018-12-02T01:34:49.331Z,19.10
2018-12-02T01:35:49.327Z,22.50
2018-12-02T01:36:49.306Z,21.20
2018-12-02T01:37:49.295Z,21.10
2018-12-02T01:38:49.284Z,19.90
2018-12-02T01:39:49.274Z,21.60
2018-12-02T01:40:49.271Z,20.30
2018-12-02T01:41:49.274Z,20.10
2018-12-02T01:42:49.232Z,20.70
2018-12-02T01:43:49.269Z,23.40
2018-12-02T01:44:49.219Z,18.90
2018-12-02T01:45:49.259Z,21.40
2018-12-02T01:46:49.189Z,19.70
2018-12-02T01:47:49.182Z,20.70
2018-12-02T01:48:49.172Z,20.10
2018-12-02T01:49:49.163Z,23.20
2018-12-02T01:50:49.152Z,21.40
2018-12-02T01:51:49.152Z,21.90
2018-12-02T01:52:49.128Z,19.60
2018-12-02T01:53:49.113Z,17.40
2018-12-02T01:54:49.103Z,20.60
2018-12-02T01:55:49.092Z,20.10
2018-12-02T01:56:49.119Z,19.50
2018-12-02T01:57:49.062Z,23.60
2018-12-02T01:58:49.117Z,19.80
2018-12-02T01:59:49.040Z,20.50
2018-12-02T02:00:49.045Z,21.20
2018-12-02T02:01:49.033Z,21.80
2018-12-02T02:02:49.010Z,22.00
2018-12-02T02:03:49.026Z,22.40
2018-12-02T02:04:48.990Z,22.20
2018-12-02T02:05:48.983Z,18.60
2018-12-02T02:06:49.994Z,22.70
2018-12-02T02:07:48.964Z,22.60
2018-12-02T02:08:48.942Z,21.90
2018-12-02T02:09:48.947Z,20.50
2018-12-02T02:10:48.914Z,22.50
2018-12-02T02:11:48.927Z,23.50
2018-12-02T02:12:48.914Z,21.00
2018-12-02T02:13:48.908Z,22.90
2018-12-02T02:14:48.871Z,22.60
2018-12-02T02:15:48.871Z,22.70
2018-12-02T02:16:48.859Z,22.70
2018-12-02T02:17:48.867Z,24.50
2018-12-02T02:18:48.839Z,21.00
2018-12-02T02:19:48.820Z,22.20
2018-12-02T02:20:48.813Z,23.20
2018-12-02T02:21:48.802Z,21.60
2018-12-02T02:22:48.812Z,24.60
2018-12-02T02:23:49.791Z,19.80
2018-12-02T02:24:48.784Z,19.80
2018-12-02T02:25:48.746Z,20.90
2018-12-02T02:26:48.763Z,23.20
2018-12-02T02:27:48.739Z,23.20
2018-12-02T02:28:48.733Z,21.80
2018-12-02T02:29:48.709Z,20.70
2018-12-02T02:30:48.705Z,22.40
2018-12-02T02:31:48.689Z,21.10
2018-12-02T02:32:48.692Z,18.30
2018-12-02T02:33:48.665Z,20.20
2018-12-02T02:34:48.652Z,19.30
2018-12-02T02:35:48.652Z,18.60
2018-12-02T02:36:48.625Z,21.20
2018-12-02T02:37:48.676Z,21.50
2018-12-02T02:38:48.600Z,19.00
2018-12-02T02:39:48.634Z,22.10
2018-12-02T02:40:48.582Z,20.80
2018-12-02T02:41:48.602Z,21.50
2018-12-02T02:42:48.567Z,18.10
2018-12-02T02:43:48.548Z,19.80
2018-12-02T02:44:48.540Z,21.50
2018-12-02T02:45:48.524Z,18.10
2018-12-02T02:46:48.533Z,21.20
2018-12-02T02:47:48.536Z,22.20
2018-12-02T02:48:48.496Z,21.60
2018-12-02T02:49:48.486Z,22.70
2018-12-02T02:50:48.487Z,19.80
2018-12-02T02:51:48.458Z,19.90
2018-12-02T02:52:48.461Z,21.20
2018-12-02T02:53:48.449Z,21.40
2018-12-02T02:54:48.453Z,22.40
2018-12-02T02:55:48.409Z,21.00
2018-12-02T02:56:48.432Z,21.80
2018-12-02T02:57:48.399Z,20.20
2018-12-02T02:58:48.403Z,21.90
2018-12-02T02:59:48.365Z,20.40
2018-12-02T03:00:48.367Z,18.70
2018-12-02T03:01:48.352Z,20.30
2018-12-02T03:02:48.340Z,20.50
2018-12-02T03:03:48.338Z,20.60
2018-12-02T03:04:48.311Z,22.00
2018-12-02T03:05:49.006Z,21.60
2018-12-02T03:06:48.285Z,21.80
2018-12-02T03:07:48.292Z,22.50
2018-12-02T03:08:48.273Z,21.40
2018-12-02T03:09:48.251Z,22.60
2018-12-02T03:10:48.242Z,21.50
2018-12-02T03:11:48.229Z,20.40
2018-12-02T03:12:48.212Z,22.30
2018-12-02T03:13:48.222Z,21.00
2018-12-02T03:14:48.190Z,20.80
2018-12-02T03:15:48.177Z,20.30
2018-12-02T03:16:48.178Z,24.10
2018-12-02T03:17:48.160Z,23.10
2018-12-02T03:18:48.495Z,20.40
2018-12-02T03:19:48.132Z,21.20
2018-12-02T03:20:48.121Z,21.10
2018-12-02T03:21:48.115Z,22.30
2018-12-02T03:22:48.098Z,20.10
2018-12-02T03:23:48.117Z,21.40
2018-12-02T03:24:48.075Z,20.60
2018-12-02T03:25:48.064Z,19.60
2018-12-02T03:26:48.054Z,21.50
2018-12-02T03:27:48.045Z,20.60
2018-12-02T03:28:48.032Z,21.20
2018-12-02T03:29:48.030Z,20.10
2018-12-02T03:30:48.009Z,18.90
2018-12-02T03:31:48.000Z,20.20
2018-12-02T03:32:47.988Z,20.20
2018-12-02T03:33:48.483Z,19.70
2018-12-02T03:34:47.976Z,22.70
2018-12-02T03:35:47.952Z,19.20
2018-12-02T03:36:47.940Z,21.90
2018-12-02T03:37:47.931Z,20.00
2018-12-02T03:38:47.918Z,20.50
2018-12-02T03:39:47.921Z,21.10
2018-12-02T03:40:47.895Z,17.80
2018-12-02T03:41:47.886Z,19.80
2018-12-02T03:42:47.874Z,20.50
2018-12-02T03:43:47.861Z,20.80
2018-12-02T03:44:47.861Z,19.40
2018-12-02T03:45:47.840Z,19.70
2018-12-02T03:46:47.828Z,20.40
2018-12-02T03:47:47.821Z,18.60
2018-12-02T03:48:47.805Z,19.40
2018-12-02T03:49:47.824Z,18.30
2018-12-02T03:50:47.786Z,20.40
2018-12-02T03:51:47.771Z,18.90
2018-12-02T03:52:47.762Z,18.50
2018-12-02T03:53:47.749Z,23.80
2018-12-02T03:54:47.739Z,20.70
2018-12-02T03:55:47.738Z,19.00
2018-12-02T03:56:47.715Z,20.20
2018-12-02T03:57:47.704Z,20.00
2018-12-02T03:58:47.692Z,22.40
2018-12-02T03:59:47.683Z,20.40
2018-12-02T04:00:47.682Z,20.00
2018-12-02T04:01:47.659Z,19.70
2018-12-02T04:02:47.650Z,19.70
2018-12-02T04:03:47.642Z,18.30
2018-12-02T04:04:47.626Z,18.80
2018-12-02T04:05:47.629Z,18.40
2018-12-02T04:06:47.603Z,21.60
2018-12-02T04:07:47.598Z,18.30
2018-12-02T04:08:47.580Z,19.10
2018-12-02T04:09:47.568Z,16.50
2018-12-02T04:10:47.575Z,18.60
2018-12-02T04:11:47.546Z,21.20
2018-12-02T04:12:47.536Z,17.20
2018-12-02T04:13:47.526Z,20.70
2018-12-02T04:14:47.512Z,18.50
2018-12-02T04:15:47.511Z,18.00
2018-12-02T04:16:47.496Z,21.90
2018-12-02T04:17:47.481Z,20.30
2018-12-02T04:18:47.468Z,20.10
2018-12-02T04:19:47.457Z,19.30
2018-12-02T04:20:47.456Z,18.00
2018-12-02T04:21:47.434Z,19.40
2018-12-02T04:22:47.423Z,18.60
2018-12-02T04:23:47.412Z,20.30
2018-12-02T04:24:47.399Z,18.60
2018-12-02T04:25:47.399Z,19.70
2018-12-02T04:26:47.378Z,18.30
2018-12-02T04:27:47.369Z,21.80
2018-12-02T04:28:47.355Z,16.80
2018-12-02T04:29:47.345Z,18.70
2018-12-02T04:30:47.345Z,20.00
2018-12-02T04:31:47.322Z,17.00
2018-12-02T04:32:47.312Z,18.10
2018-12-02T04:33:47.299Z,19.50
2018-12-02T04:34:47.290Z,18.40
2018-12-02T04:35:47.287Z,17.80
2018-12-02T04:36:47.265Z,17.80
2018-12-02T04:37:47.254Z,17.90
2018-12-02T04:38:47.244Z,19.40
2018-12-02T04:39:47.232Z,17.80
2018-12-02T04:40:47.231Z,17.60
2018-12-02T04:41:47.208Z,16.00
2018-12-02T04:42:47.198Z,19.10
2018-12-02T04:43:47.189Z,20.00
2018-12-02T04:44:47.178Z,17.10
2018-12-02T04:45:47.187Z,22.10
2018-12-02T04:46:47.154Z,19.50
2018-12-02T04:47:47.141Z,19.50
2018-12-02T04:48:47.130Z,20.30
2018-12-02T04:49:47.119Z,17.80
2018-12-02T04:50:47.137Z,18.40
2018-12-02T04:51:47.096Z,22.30
2018-12-02T04:52:47.090Z,22.20
2018-12-02T04:53:47.073Z,21.20
2018-12-02T04:54:47.064Z,18.30
2018-12-02T04:55:47.055Z,20.50
2018-12-02T04:56:47.057Z,22.00
2018-12-02T04:57:47.988Z,22.00
2018-12-02T04:58:47.016Z,20.60
2018-12-02T04:59:47.403Z,20.50
2018-12-02T05:00:46.995Z,21.90
2018-12-02T05:01:46.994Z,22.60
2018-12-02T05:02:46.974Z,22.20
2018-12-02T05:03:46.962Z,23.60
2018-12-02T05:04:46.949Z,22.10
2018-12-02T05:05:46.938Z,21.50
2018-12-02T05:06:46.961Z,21.40
2018-12-02T05:07:46.919Z,22.30
2018-12-02T05:08:46.939Z,19.10
2018-12-02T05:09:46.894Z,20.50
2018-12-02T05:10:46.883Z,20.40
2018-12-02T05:11:46.870Z,22.10
2018-12-02T05:12:46.870Z,20.70
2018-12-02T05:13:46.848Z,21.10
2018-12-02T05:14:46.837Z,19.10
2018-12-02T05:15:46.828Z,25.10
2018-12-02T05:16:46.815Z,20.90
2018-12-02T05:17:46.815Z,22.20
2018-12-02T05:18:46.792Z,18.60
2018-12-02T05:19:46.781Z,19.50
2018-12-02T05:20:46.769Z,21.50
2018-12-02T05:21:46.759Z,22.40
2018-12-02T05:22:46.757Z,24.00
2018-12-02T05:23:46.736Z,19.60
2018-12-02T05:24:46.726Z,20.20
2018-12-02T05:25:46.715Z,21.80
2018-12-02T05:26:46.702Z,22.20
2018-12-02T05:27:46.707Z,21.70
2018-12-02T05:28:46.682Z,20.90
2018-12-02T05:29:46.670Z,19.50
2018-12-02T05:30:46.657Z,21.30
2018-12-02T05:31:46.645Z,19.60
2018-12-02T05:32:46.645Z,20.60
2018-12-02T05:33:46.623Z,21.80
2018-12-02T05:34:46.614Z,19.60
2018-12-02T05:35:46.600Z,21.50
2018-12-02T05:36:46.591Z,18.40
2018-12-02T05:37:46.611Z,19.90
2018-12-02T05:38:46.581Z,18.70
2018-12-02T05:39:46.554Z,20.00
2018-12-02T05:40:46.544Z,19.20
2018-12-02T05:41:46.533Z,19.70
2018-12-02T05:42:46.521Z,19.30
2018-12-02T05:43:46.521Z,20.80
2018-12-02T05:44:46.499Z,20.60
2018-12-02T05:45:46.488Z,20.40
2018-12-02T05:46:46.477Z,20.70
2018-12-02T05:47:46.466Z,20.10
2018-12-02T05:48:46.466Z,18.60
2018-12-02T05:49:46.443Z,19.70
2018-12-02T05:50:46.430Z,19.00
2018-12-02T05:51:46.420Z,21.60
2018-12-02T05:52:46.410Z,20.60
2018-12-02T05:53:46.408Z,17.70
2018-12-02T05:54:46.388Z,17.30
2018-12-02T05:55:46.376Z,19.80
2018-12-02T05:56:46.363Z,19.40
2018-12-02T05:57:46.357Z,17.90
2018-12-02T05:58:46.413Z,17.80
2018-12-02T05:59:46.334Z,17.10
2018-12-02T06:00:46.320Z,16.20
2018-12-02T06:01:46.308Z,16.20
2018-12-02T06:02:46.295Z,20.40
2018-12-02T06:03:46.297Z,17.60
2018-12-02T06:04:46.274Z,18.10
2018-12-02T06:05:46.261Z,19.50
2018-12-02T06:06:46.252Z,18.00
2018-12-02T06:07:46.243Z,19.20
2018-12-02T06:08:46.240Z,19.80
2018-12-02T06:09:46.216Z,17.80
2018-12-02T06:10:46.209Z,20.90
2018-12-02T06:11:46.207Z,19.80
2018-12-02T06:12:46.183Z,17.30
2018-12-02T06:13:46.182Z,18.00
2018-12-02T06:14:46.167Z,20.10
2018-12-02T06:15:46.157Z,17.30
2018-12-02T06:16:46.139Z,17.20
2018-12-02T06:17:46.127Z,17.50
2018-12-02T06:18:46.144Z,16.90
2018-12-02T06:19:46.105Z,15.80
2018-12-02T06:20:46.094Z,18.50
2018-12-02T06:21:46.082Z,18.80
2018-12-02T06:22:46.071Z,17.20
2018-12-02T06:23:46.059Z,16.00
2018-12-02T06:24:46.061Z,14.50
2018-12-02T06:25:46.593Z,16.50
2018-12-02T06:26:46.026Z,17.70
2018-12-02T06:27:46.016Z,16.80
2018-12-02T06:28:46.005Z,16.30
2018-12-02T06:29:46.002Z,16.20
2018-12-02T06:30:45.981Z,15.30
2018-12-02T06:31:45.970Z,15.50
2018-12-02T06:32:45.959Z,16.80
2018-12-02T06:33:45.956Z,17.00
2018-12-02T06:34:45.946Z,16.60
2018-12-02T06:35:45.925Z,17.20
2018-12-02T06:36:45.913Z,15.90
2018-12-02T06:37:45.972Z,17.50
2018-12-02T06:38:45.894Z,16.10
2018-12-02T06:39:45.892Z,15.70
2018-12-02T06:40:45.865Z,17.90
2018-12-02T06:41:45.861Z,15.80
2018-12-02T06:42:45.848Z,16.20
2018-12-02T06:43:45.837Z,16.30
2018-12-02T06:44:45.858Z,18.00
2018-12-02T06:45:45.813Z,14.70
2018-12-02T06:46:45.805Z,14.70
2018-12-02T06:47:45.794Z,15.00
2018-12-02T06:48:45.780Z,18.40
2018-12-02T06:49:45.778Z,15.90
2018-12-02T06:50:45.773Z,15.50
2018-12-02T06:51:45.747Z,16.50
2018-12-02T06:52:45.735Z,15.40
2018-12-02T06:53:45.724Z,16.70
2018-12-02T06:54:45.713Z,17.10
2018-12-02T06:55:45.716Z,16.40
2018-12-02T06:56:45.693Z,14.40
2018-12-02T06:57:45.679Z,18.10
2018-12-02T06:58:45.668Z,14.80
2018-12-02T06:59:45.660Z,16.40
2018-12-02T07:00:45.663Z,17.40
2018-12-02T07:01:45.635Z,16.00
2018-12-02T07:02:45.624Z,15.00
2018-12-02T07:03:45.613Z,15.60
2018-12-02T07:04:45.602Z,15.50
2018-12-02T07:05:45.604Z,16.00
2018-12-02T07:06:45.588Z,14.80
2018-12-02T07:07:45.569Z,16.40
2018-12-02T07:08:45.556Z,16.60
2018-12-02T07:09:45.545Z,16.80
2018-12-02T07:10:45.547Z,15.30
2018-12-02T07:11:45.522Z,17.50
2018-12-02T07:12:45.517Z,16.80
2018-12-02T07:13:45.500Z,15.20
2018-12-02T07:14:45.489Z,15.30
2018-12-02T07:15:45.506Z,15.80
2018-12-02T07:16:45.471Z,14.80
2018-12-02T07:17:45.467Z,17.60
2018-12-02T07:18:45.444Z,17.40
2018-12-02T07:19:45.434Z,15.90
2018-12-02T07:20:45.422Z,16.60
2018-12-02T07:21:45.424Z,15.40
2018-12-02T07:22:45.404Z,16.80
2018-12-02T07:23:45.400Z,16.90
2018-12-02T07:24:45.378Z,15.80
2018-12-02T07:25:45.368Z,17.80
2018-12-02T07:26:45.372Z,19.60
2018-12-02T07:27:45.356Z,15.60
2018-12-02T07:28:45.335Z,16.40
2018-12-02T07:29:45.330Z,15.60
2018-12-02T07:30:45.313Z,15.00
2018-12-02T07:31:45.310Z,17.10
2018-12-02T07:32:45.289Z,14.60
2018-12-02T07:33:45.279Z,15.20
2018-12-02T07:34:45.992Z,16.90
2018-12-02T07:35:45.256Z,16.50
2018-12-02T07:36:45.256Z,15.40
2018-12-02T07:37:45.234Z,15.70
2018-12-02T07:38:45.223Z,17.60
2018-12-02T07:39:45.211Z,16.30
2018-12-02T07:40:45.202Z,20.10
2018-12-02T07:41:45.205Z,14.90
2018-12-02T07:42:45.178Z,18.60
2018-12-02T07:43:45.168Z,17.30
2018-12-02T07:44:45.157Z,19.40
2018-12-02T07:45:45.146Z,19.30
2018-12-02T07:46:45.996Z,16.40
2018-12-02T07:47:45.124Z,16.50
2018-12-02T07:48:45.112Z,16.20
2018-12-02T07:49:45.100Z,17.40
2018-12-02T07:50:45.093Z,19.30
2018-12-02T07:51:45.112Z,19.80
2018-12-02T07:52:45.067Z,18.00
2018-12-02T07:53:45.056Z,18.20
2018-12-02T07:54:45.044Z,17.20
2018-12-02T07:55:45.035Z,18.40
2018-12-02T07:56:45.022Z,17.20
2018-12-02T07:57:45.993Z,18.70
2018-12-02T07:58:44.999Z,17.00
2018-12-02T07:59:44.992Z,17.90
2018-12-02T08:00:44.980Z,19.00
2018-12-02T08:01:44.970Z,18.30
2018-12-02T08:02:44.971Z,19.70
2018-12-02T08:03:44.949Z,18.00
2018-12-02T08:04:44.933Z,19.10
2018-12-02T08:05:44.922Z,16.00
2018-12-02T08:06:44.911Z,17.30
2018-12-02T08:07:44.917Z,17.80
2018-12-02T08:08:45.476Z,17.40
2018-12-02T08:09:44.915Z,16.10
2018-12-02T08:10:44.867Z,21.00
2018-12-02T08:11:44.857Z,17.80
2018-12-02T08:12:44.859Z,17.40
2018-12-02T08:13:44.833Z,18.20
2018-12-02T08:14:44.861Z,17.70
2018-12-02T08:15:44.810Z,17.20
2018-12-02T08:16:44.799Z,17.60
2018-12-02T08:17:44.814Z,18.70
2018-12-02T08:18:44.777Z,18.20
2018-12-02T08:19:44.773Z,17.30
2018-12-02T08:20:44.786Z,19.20
2018-12-02T08:21:44.745Z,17.80
2018-12-02T08:22:44.741Z,17.70
2018-12-02T08:23:44.752Z,18.90
2018-12-02T08:24:44.710Z,17.10
2018-12-02T08:25:44.699Z,17.30
2018-12-02T08:26:44.687Z,18.30
2018-12-02T08:27:44.678Z,17.30
2018-12-02T08:28:44.675Z,18.10
2018-12-02T08:29:44.655Z,18.20
2018-12-02T08:30:44.642Z,17.70
2018-12-02T08:31:44.654Z,18.70
2018-12-02T08:32:44.618Z,17.50
2018-12-02T08:33:44.616Z,14.70
2018-12-02T08:34:44.599Z,16.50
2018-12-02T08:35:44.590Z,16.50
2018-12-02T08:36:44.579Z,17.20
2018-12-02T08:37:44.571Z,17.40
2018-12-02T08:38:44.587Z,16.70
2018-12-02T08:39:44.541Z,16.60
2018-12-02T08:40:44.531Z,15.00
2018-12-02T08:41:44.528Z,15.90
2018-12-02T08:42:44.525Z,17.50
2018-12-02T08:43:44.513Z,15.50
2018-12-02T08:44:44.518Z,18.90
2018-12-02T08:45:44.477Z,17.80
2018-12-02T08:46:44.465Z,15.90
2018-12-02T08:47:44.454Z,14.80
2018-12-02T08:48:44.459Z,18.20
2018-12-02T08:49:44.440Z,16.50
2018-12-02T08:50:44.424Z,17.30
2018-12-02T08:51:44.409Z,17.90
2018-12-02T08:52:44.399Z,17.20
2018-12-02T08:53:44.416Z,16.10
2018-12-02T08:54:44.377Z,17.80
2018-12-02T08:55:44.370Z,16.80
2018-12-02T08:56:44.353Z,17.70
2018-12-02T08:57:44.343Z,15.00
2018-12-02T08:58:44.347Z,17.00
2018-12-02T08:59:44.489Z,18.50
2018-12-02T09:00:44.316Z,16.40
2018-12-02T09:01:44.305Z,19.60
2018-12-02T09:02:44.293Z,16.90
2018-12-02T09:03:44.291Z,15.60
2018-12-02T09:04:44.284Z,16.40
2018-12-02T09:05:44.255Z,16.90
2018-12-02T09:06:44.247Z,16.60
2018-12-02T09:07:44.237Z,15.20
2018-12-02T09:08:44.256Z,15.10
2018-12-02T09:09:44.229Z,18.50
2018-12-02T09:10:45.746Z,14.40
2018-12-02T09:11:44.205Z,15.70
2018-12-02T09:12:44.236Z,15.30
2018-12-02T09:13:44.165Z,17.10
2018-12-02T09:14:44.163Z,13.60
2018-12-02T09:15:44.144Z,16.00
2018-12-02T09:16:44.136Z,15.70
2018-12-02T09:17:44.121Z,16.40
2018-12-02T09:18:44.108Z,15.30
2018-12-02T09:19:44.125Z,16.60
2018-12-02T09:20:44.089Z,19.00
2018-12-02T09:21:44.082Z,14.50
2018-12-02T09:22:44.073Z,17.80
2018-12-02T09:23:47.443Z,15.40
2018-12-02T09:24:44.043Z,17.00
2018-12-02T09:25:44.040Z,17.70
2018-12-02T09:26:44.998Z,15.00
2018-12-02T09:27:44.010Z,16.20
2018-12-02T09:28:43.998Z,16.80
2018-12-02T09:29:43.987Z,16.40
2018-12-02T09:30:43.997Z,15.70
2018-12-02T09:31:43.963Z,16.70
2018-12-02T09:32:43.954Z,16.00
2018-12-02T09:33:43.961Z,16.80
2018-12-02T09:34:43.942Z,16.80
2018-12-02T09:35:43.928Z,16.10
2018-12-02T09:36:43.908Z,15.90
2018-12-02T09:37:43.895Z,17.00
2018-12-02T09:38:43.892Z,17.90
2018-12-02T09:39:43.874Z,17.00
2018-12-02T09:40:43.876Z,16.60
2018-12-02T09:41:43.852Z,15.20
2018-12-02T09:42:43.840Z,16.20
2018-12-02T09:43:43.831Z,18.80
2018-12-02T09:44:43.824Z,16.60
2018-12-02T09:45:43.818Z,16.10
2018-12-02T09:46:43.797Z,18.50
2018-12-02T09:47:43.808Z,16.90
2018-12-02T09:48:43.772Z,14.10
2018-12-02T09:49:43.765Z,17.00
2018-12-02T09:50:43.763Z,15.10
2018-12-02T09:51:43.738Z,14.70
2018-12-02T09:52:43.729Z,14.70
2018-12-02T09:53:43.718Z,17.10
2018-12-02T09:54:43.708Z,14.60
2018-12-02T09:55:43.711Z,14.90
2018-12-02T09:56:43.686Z,16.50
2018-12-02T09:57:43.673Z,16.10
2018-12-02T09:58:43.661Z,16.10
2018-12-02T09:59:43.649Z,14.20
2018-12-02T10:00:43.773Z,17.00
2018-12-02T10:01:43.669Z,13.50
2018-12-02T10:02:43.621Z,15.00
2018-12-02T10:03:43.606Z,15.70
2018-12-02T10:04:43.629Z,15.20
2018-12-02T10:05:43.585Z,13.40
2018-12-02T10:06:43.582Z,14.20
2018-12-02T10:07:43.560Z,14.40
2018-12-02T10:08:43.549Z,13.20
2018-12-02T10:09:43.539Z,13.80
2018-12-02T10:10:43.530Z,11.40
2018-12-02T10:11:43.525Z,14.80
2018-12-02T10:12:43.512Z,12.90
2018-12-02T10:13:43.493Z,13.20
2018-12-02T10:14:43.482Z,12.80
2018-12-02T10:15:43.471Z,13.80
2018-12-02T10:16:43.471Z,12.90
2018-12-02T10:17:43.504Z,13.40
2018-12-02T10:18:43.443Z,12.70
2018-12-02T10:19:43.428Z,12.80
2018-12-02T10:20:43.414Z,12.30
2018-12-02T10:21:43.414Z,14.30
2018-12-02T10:22:43.391Z,13.60
2018-12-02T10:23:43.387Z,12.50
2018-12-02T10:24:43.369Z,13.20
2018-12-02T10:25:43.358Z,13.60
2018-12-02T10:26:43.377Z,14.80
2018-12-02T10:27:43.334Z,13.50
2018-12-02T10:28:43.324Z,13.90
2018-12-02T10:29:43.312Z,13.60
2018-12-02T10:30:43.301Z,13.80
2018-12-02T10:31:43.289Z,11.50
2018-12-02T10:32:43.288Z,14.00
2018-12-02T10:33:43.268Z,11.60
2018-12-02T10:34:43.258Z,12.50
2018-12-02T10:35:43.256Z,13.10
2018-12-02T10:36:43.238Z,14.50
2018-12-02T10:37:43.233Z,12.20
2018-12-02T10:38:43.210Z,13.60
2018-12-02T10:39:43.201Z,12.00
2018-12-02T10:40:43.188Z,13.40
2018-12-02T10:41:43.174Z,13.70
2018-12-02T10:42:43.174Z,13.00
2018-12-02T10:43:43.153Z,13.70
2018-12-02T10:44:43.141Z,12.60
2018-12-02T10:45:43.136Z,12.20
2018-12-02T10:46:44.027Z,12.60
2018-12-02T10:47:43.119Z,9.60
2018-12-02T10:48:43.095Z,12.90
2018-12-02T10:49:43.085Z,12.60
2018-12-02T10:50:43.073Z,12.00
2018-12-02T10:51:43.068Z,11.60
2018-12-02T10:52:43.067Z,12.30
2018-12-02T10:53:43.039Z,11.80
2018-12-02T10:54:43.026Z,13.10
2018-12-02T10:55:43.015Z,12.50
2018-12-02T10:56:43.008Z,12.30
2018-12-02T10:57:43.007Z,12.10
2018-12-02T10:58:42.982Z,11.50
2018-12-02T10:59:42.970Z,12.20
2018-12-02T11:00:42.959Z,10.90
2018-12-02T11:01:42.948Z,9.90
2018-12-02T11:02:42.965Z,11.60
2018-12-02T11:03:42.924Z,12.00
2018-12-02T11:04:42.915Z,11.40
2018-12-02T11:05:42.903Z,10.40
2018-12-02T11:06:42.892Z,12.90
2018-12-02T11:07:42.886Z,11.30
2018-12-02T11:08:42.879Z,11.40
2018-12-02T11:09:42.857Z,11.10
2018-12-02T11:10:42.846Z,10.80
2018-12-02T11:11:42.834Z,11.00
2018-12-02T11:12:42.822Z,11.50
2018-12-02T11:13:42.825Z,13.40
2018-12-02T11:14:42.805Z,11.80
2018-12-02T11:15:42.790Z,11.00
2018-12-02T11:16:42.777Z,11.90
2018-12-02T11:17:42.765Z,13.10
2018-12-02T11:18:42.773Z,12.30
2018-12-02T11:19:42.742Z,12.30
2018-12-02T11:20:42.732Z,11.90
2018-12-02T11:21:42.720Z,12.80
2018-12-02T11:22:42.709Z,10.00
2018-12-02T11:23:42.718Z,12.30
2018-12-02T11:24:42.684Z,13.60
2018-12-02T11:25:42.674Z,12.20
2018-12-02T11:26:42.662Z,10.90
2018-12-02T11:27:42.663Z,11.80
2018-12-02T11:28:42.651Z,12.20
2018-12-02T11:29:49.687Z,11.00
2018-12-02T11:30:49.649Z,11.60
2018-12-02T11:31:49.655Z,12.60
2018-12-02T11:32:42.595Z,11.80
2018-12-02T11:33:42.595Z,11.40
2018-12-02T11:34:42.571Z,11.90
2018-12-02T11:35:42.566Z,12.70
2018-12-02T11:36:42.549Z,12.30
2018-12-02T11:37:42.536Z,13.20
2018-12-02T11:38:42.537Z,13.80
2018-12-02T11:39:42.514Z,11.90
2018-12-02T11:40:42.503Z,11.90
2018-12-02T11:41:49.521Z,10.60
2018-12-02T11:42:49.511Z,11.20
2018-12-02T11:43:49.516Z,14.00
2018-12-02T11:44:49.497Z,11.50
2018-12-02T11:45:49.490Z,11.70
2018-12-02T11:46:49.457Z,10.50
2018-12-02T11:47:49.456Z,14.40
2018-12-02T11:48:49.474Z,12.20
2018-12-02T11:49:50.413Z,12.80
2018-12-02T11:50:50.643Z,13.20
2018-12-02T11:51:49.406Z,11.30
2018-12-02T11:52:50.389Z,12.50
2018-12-02T11:53:49.385Z,9.20
2018-12-02T11:54:49.393Z,11.50
2018-12-02T11:55:49.364Z,10.30
2018-12-02T11:56:49.354Z,10.80
2018-12-02T11:57:49.341Z,11.50
2018-12-02T11:58:42.311Z,11.30
2018-12-02T11:59:42.322Z,10.90
2018-12-02T12:00:42.282Z,9.60
2018-12-02T12:01:42.268Z,10.00
2018-12-02T12:02:49.285Z,9.80
2018-12-02T12:03:49.271Z,12.50
2018-12-02T12:04:49.274Z,11.80
2018-12-02T12:05:49.249Z,11.30
2018-12-02T12:06:49.889Z,11.80
2018-12-02T12:07:49.232Z,10.30
2018-12-02T12:08:49.241Z,10.20
2018-12-02T12:09:50.206Z,10.30
2018-12-02T12:10:49.194Z,9.80
2018-12-02T12:11:49.183Z,10.20
2018-12-02T12:12:50.083Z,9.80
2018-12-02T12:13:49.157Z,11.30
2018-12-02T12:14:50.148Z,11.40
2018-12-02T12:15:42.117Z,9.00
2018-12-02T12:16:42.101Z,9.40
2018-12-02T12:17:49.116Z,10.00
2018-12-02T12:18:42.087Z,11.20
2018-12-02T12:19:42.126Z,10.80
2018-12-02T12:20:42.066Z,10.70
2018-12-02T12:21:49.072Z,11.50
2018-12-02T12:22:42.037Z,10.90
2018-12-02T12:23:42.022Z,10.80
2018-12-02T12:24:42.041Z,11.50
2018-12-02T12:25:42.040Z,10.70
2018-12-02T12:26:41.991Z,11.40
2018-12-02T12:27:41.977Z,11.30
2018-12-02T12:28:41.969Z,9.60
2018-12-02T12:29:41.954Z,9.60
2018-12-02T12:30:41.955Z,9.80
2018-12-02T12:31:41.936Z,10.70
2018-12-02T12:32:41.932Z,9.50
2018-12-02T12:33:41.911Z,10.10
2018-12-02T12:34:41.897Z,8.40
2018-12-02T12:35:41.897Z,11.40
2018-12-02T12:36:41.878Z,10.60
2018-12-02T12:37:41.866Z,9.80
2018-12-02T12:38:41.851Z,9.10
2018-12-02T12:39:41.839Z,12.30
2018-12-02T12:40:41.837Z,10.40
2018-12-02T12:41:41.812Z,10.90
2018-12-02T12:42:41.805Z,9.20
2018-12-02T12:43:41.802Z,10.20
2018-12-02T12:44:41.788Z,11.00
2018-12-02T12:45:41.783Z,9.50
2018-12-02T12:46:41.767Z,10.10
2018-12-02T12:47:41.747Z,10.50
2018-12-02T12:48:41.737Z,10.00
2018-12-02T12:49:41.727Z,9.00
2018-12-02T12:50:41.727Z,10.00
2018-12-02T12:51:41.703Z,9.60
2018-12-02T12:52:41.692Z,10.00
2018-12-02T12:53:41.683Z,12.00